Time;durP1;ratioP1;P1;durP2;ratioP2;P2;SDS_P1;SDS_P2;PMS_P1;PMS_P2;Temp;Humidity;BMP_temperature;BMP_pressure;BME280_temperature;BME280_humidity;BME280_pressure;Samples;Min_cycle;Max_cycle;Signal;HPM_P1;HPM_P2
2022/11/10 00:02:18;;;;;;;10.53;2.40;;;;;8.60;94418.00;;;;7394658;19;20147;-77
2022/11/10 00:04:47;;;;;;;5.67;2.37;;;;;8.70;94416.00;;;;7392543;19;20157;-78
2022/11/10 00:07:25;;;;;;;7.07;2.43;;;;;8.80;94424.00;;;;7397020;19;20583;-76
2022/11/10 00:09:53;;;;;;;7.43;2.53;;;;;8.60;94416.00;;;;7394971;19;20143;-76
2022/11/10 00:12:21;;;;;;;9.57;2.67;;;;;8.60;94415.00;;;;7399446;19;20265;-78
2022/11/10 00:17:41;;;;;;;3.90;2.47;;;;;8.70;94425.00;;;;7396775;19;20125;-76
2022/11/10 00:20:20;;;;;;;7.83;3.43;;;;;8.60;94428.00;;;;7395589;19;20154;-76
2022/11/10 00:22:47;;;;;;;14.10;3.63;;;;;8.70;94432.00;;;;7396852;19;20599;-77
2022/11/10 00:25:15;;;;;;;7.77;2.90;;;;;8.50;94427.00;;;;7392692;19;20588;-77
2022/11/10 00:27:48;;;;;;;8.83;3.30;;;;;8.70;94428.00;;;;7396286;19;20137;-75
2022/11/10 00:30:16;;;;;;;10.33;3.60;;;;;8.60;94426.00;;;;7394497;19;20129;-76
2022/11/10 00:32:45;;;;;;;10.33;3.60;;;;;8.50;94436.00;;;;7391952;19;20637;-77
2022/11/10 00:35:19;;;;;;;9.83;3.53;;;;;8.50;94426.00;;;;7394612;19;20171;-78
2022/11/10 00:37:49;;;;;;;11.37;3.50;;;;;8.40;94422.00;;;;7396235;19;20623;-78
2022/11/10 00:40:18;;;;;;;11.53;3.37;;;;;8.30;94415.00;;;;7393344;19;20133;-76
2022/11/10 00:42:52;;;;;;;11.67;4.07;;;;;8.30;94415.00;;;;7390700;19;20136;-77
2022/11/10 00:45:20;;;;;;;9.20;3.40;;;;;8.20;94415.00;;;;7394676;19;20142;-77
2022/11/10 00:47:47;;;;;;;13.33;3.40;;;;;8.00;94415.00;;;;7394761;19;20128;-77
2022/11/10 00:50:21;;;;;;;15.53;4.03;;;;;8.10;94420.00;;;;7395396;19;20152;-77
2022/11/10 00:52:55;;;;;;;11.47;3.90;;;;;8.00;94427.00;;;;7392498;19;20246;-77
2022/11/10 00:55:29;;;;;;;9.57;3.77;;;;;8.00;94434.00;;;;7394786;19;20192;-77
2022/11/10 00:57:57;;;;;;;11.00;3.70;;;;;7.90;94439.00;;;;7395305;19;20147;-77
2022/11/10 01:00:24;;;;;;;6.00;3.70;;;;;7.90;94446.00;;;;7393850;19;20570;-76
2022/11/10 01:02:58;;;;;;;11.17;4.33;;;;;7.90;94464.00;;;;7393591;19;20155;-77
2022/11/10 01:05:26;;;;;;;11.47;3.63;;;;;7.80;94464.00;;;;7389222;19;20480;-76
2022/11/10 01:07:53;;;;;;;9.53;4.70;;;;;7.80;94461.00;;;;7397674;19;20140;-76
2022/11/10 01:10:27;;;;;;;11.27;4.07;;;;;7.80;94461.00;;;;7397863;19;20154;-78
2022/11/10 01:12:55;;;;;;;6.03;3.50;;;;;7.80;94464.00;;;;7393445;19;20136;-79
2022/11/10 01:15:22;;;;;;;12.57;3.87;;;;;7.80;94462.00;;;;7393781;19;20139;-74
2022/11/10 01:17:57;;;;;;;11.57;3.83;;;;;7.80;94478.00;;;;7394808;19;20454;-77
2022/11/10 01:20:25;;;;;;;7.30;3.97;;;;;7.80;94478.00;;;;7392039;19;20125;-77
2022/11/10 01:22:52;;;;;;;8.60;3.63;;;;;7.90;94484.00;;;;7396504;19;20140;-77
2022/11/10 01:25:26;;;;;;;9.70;4.50;;;;;7.70;94490.00;;;;7393884;19;20193;-76
2022/11/10 01:27:54;;;;;;;15.47;4.13;;;;;7.80;94492.00;;;;7394135;19;20129;-77
2022/11/10 01:30:21;;;;;;;12.63;4.27;;;;;7.80;94507.00;;;;7392689;19;20938;-76
2022/11/10 01:32:55;;;;;;;19.10;5.03;;;;;7.70;94500.00;;;;7391425;19;20180;-77
2022/11/10 01:35:23;;;;;;;11.40;3.77;;;;;7.80;94504.00;;;;7393265;19;20129;-77
2022/11/10 01:37:53;;;;;;;13.27;4.47;;;;;7.90;94508.00;;;;7391424;19;20151;-75
2022/11/10 01:40:27;;;;;;;11.70;4.03;;;;;7.90;94507.00;;;;7395105;19;20464;-77
2022/11/10 01:42:57;;;;;;;10.47;4.00;;;;;8.10;94507.00;;;;7391844;19;20117;-78
2022/11/10 01:45:24;;;;;;;10.27;4.50;;;;;8.00;94514.00;;;;7392590;19;20613;-79
2022/11/10 01:48:01;;;;;;;11.00;4.00;;;;;7.90;94515.00;;;;7394347;19;20162;-78
2022/11/10 01:50:38;;;;;;;14.60;4.13;;;;;7.90;94517.00;;;;7392087;19;20141;-80
2022/11/10 01:53:26;;;;;;;8.13;3.97;;;;;7.90;94519.00;;;;7391995;19;20162;-78
2022/11/10 01:55:55;;;;;;;12.73;4.90;;;;;7.90;94516.00;;;;7393859;19;20210;-77
2022/11/10 01:58:38;;;;;;;17.40;4.57;;;;;8.00;94518.00;;;;7391566;19;20200;-77
2022/11/10 02:01:07;;;;;;;14.87;3.90;;;;;8.00;94520.00;;;;7395749;19;20158;-78
2022/11/10 02:04:05;;;;;;;15.43;4.47;;;;;7.80;94519.00;;;;7392588;19;20464;-76
2022/11/10 02:06:40;;;;;;;11.67;4.03;;;;;7.80;94523.00;;;;7389451;19;20192;-75
2022/11/10 02:09:15;;;;;;;15.13;4.57;;;;;7.70;94517.00;;;;7392320;19;20151;-76
2022/11/10 02:11:50;;;;;;;11.43;4.23;;;;;7.80;94521.00;;;;7393929;19;20522;-76
2022/11/10 02:14:24;;;;;;;17.37;5.60;;;;;7.80;94522.00;;;;7392173;19;20217;-76
2022/11/10 02:16:51;;;;;;;13.77;4.20;;;;;7.80;94510.00;;;;7393448;19;20620;-75
2022/11/10 02:19:24;;;;;;;12.43;4.93;;;;;7.70;94519.00;;;;7394164;19;20176;-76
2022/11/10 02:21:59;;;;;;;10.43;5.27;;;;;7.90;94515.00;;;;7396152;19;20128;-76
2022/11/10 02:24:26;;;;;;;12.50;4.90;;;;;7.70;94521.00;;;;7389683;19;20212;-75
2022/11/10 02:26:56;;;;;;;12.90;5.20;;;;;7.60;94517.00;;;;7390949;19;20155;-76
2022/11/10 02:29:30;;;;;;;16.30;6.13;;;;;7.80;94525.00;;;;7392397;19;20113;-76
2022/11/10 02:31:57;;;;;;;15.33;5.47;;;;;7.70;94531.00;;;;7390628;19;20156;-76
2022/11/10 02:34:25;;;;;;;15.83;5.60;;;;;7.60;94529.00;;;;7390667;19;20136;-76
2022/11/10 02:37:00;;;;;;;15.17;5.07;;;;;7.60;94532.00;;;;7392083;19;20128;-76
2022/11/10 02:39:28;;;;;;;13.90;5.07;;;;;7.60;94537.00;;;;7391211;19;20144;-77
2022/11/10 02:41:55;;;;;;;11.67;5.87;;;;;7.70;94539.00;;;;7394513;19;20137;-76
2022/11/10 02:44:29;;;;;;;18.40;7.00;;;;;7.70;94538.00;;;;7390716;19;20136;-76
2022/11/10 02:46:57;;;;;;;23.60;6.20;;;;;7.50;94541.00;;;;7391753;19;20130;-77
2022/11/10 02:49:26;;;;;;;14.70;5.77;;;;;7.50;94534.00;;;;7392115;19;20619;-77
2022/11/10 02:51:59;;;;;;;11.77;5.87;;;;;7.60;94540.00;;;;7389002;19;20161;-76
2022/11/10 02:54:33;;;;;;;11.20;5.67;;;;;7.50;94544.00;;;;7389192;19;20165;-76
2022/11/10 02:57:07;;;;;;;15.73;5.93;;;;;7.50;94547.00;;;;7389274;19;20474;-76
2022/11/10 02:59:34;;;;;;;12.73;5.77;;;;;7.40;94554.00;;;;7391151;19;20153;-76
2022/11/10 03:02:02;;;;;;;19.17;7.13;;;;;7.30;94553.00;;;;7389389;19;20141;-76
2022/11/10 03:04:36;;;;;;;18.90;5.80;;;;;7.20;94558.00;;;;7386997;19;20160;-76
2022/11/10 03:07:03;;;;;;;16.50;6.43;;;;;7.20;94566.00;;;;7388519;19;20208;-76
2022/11/10 03:09:31;;;;;;;14.47;5.40;;;;;7.20;94572.00;;;;7394879;19;20129;-76
2022/11/10 03:12:05;;;;;;;22.17;6.10;;;;;7.20;94569.00;;;;7400670;19;20135;-76
2022/11/10 03:14:33;;;;;;;21.00;6.17;;;;;7.00;94571.00;;;;7395087;19;20133;-75
2022/11/10 03:17:00;;;;;;;12.27;5.90;;;;;7.00;94566.00;;;;7398969;19;20144;-76
2022/11/10 03:19:34;;;;;;;16.30;5.13;;;;;7.10;94575.00;;;;7395848;19;20583;-76
2022/11/10 03:22:02;;;;;;;14.90;5.37;;;;;7.00;94576.00;;;;7399087;19;20157;-75
2022/11/10 03:24:29;;;;;;;14.07;5.57;;;;;7.10;94585.00;;;;7397898;19;20129;-75
2022/11/10 03:27:03;;;;;;;16.33;6.83;;;;;7.10;94586.00;;;;7397005;19;20602;-75
2022/11/10 03:29:31;;;;;;;19.73;6.77;;;;;7.20;94587.00;;;;7395866;19;20133;-75
2022/11/10 03:31:58;;;;;;;18.07;6.43;;;;;7.10;94594.00;;;;7396716;19;20133;-74
2022/11/10 03:34:32;;;;;;;17.23;6.83;;;;;7.20;94604.00;;;;7396843;19;20580;-75
2022/11/10 03:36:59;;;;;;;18.73;6.53;;;;;7.10;94601.00;;;;7395240;19;20137;-77
2022/11/10 03:39:27;;;;;;;19.93;7.33;;;;;7.00;94601.00;;;;7396452;19;20140;-75
2022/11/10 03:42:01;;;;;;;10.33;6.10;;;;;7.10;94598.00;;;;7398719;19;20138;-78
2022/11/10 03:44:28;;;;;;;21.70;7.03;;;;;7.00;94602.00;;;;7396594;19;20145;-76
2022/11/10 03:46:56;;;;;;;15.63;6.93;;;;;7.10;94598.00;;;;7394763;19;20123;-77
2022/11/10 03:49:30;;;;;;;13.60;6.00;;;;;6.90;94615.00;;;;7396276;19;20148;-75
2022/11/10 03:51:58;;;;;;;12.87;6.57;;;;;6.80;94609.00;;;;7396095;19;20128;-75
2022/11/10 03:54:25;;;;;;;16.30;6.13;;;;;6.80;94605.00;;;;7395899;19;20176;-76
2022/11/10 03:56:59;;;;;;;25.63;6.90;;;;;6.90;94606.00;;;;7399487;19;20482;-76
2022/11/10 03:59:27;;;;;;;19.37;6.47;;;;;6.70;94618.00;;;;7395843;19;20606;-76
2022/11/10 04:01:54;;;;;;;16.20;6.03;;;;;6.60;94619.00;;;;7394976;19;20618;-75
2022/11/10 04:10:07;;;;;;;23.33;5.60;;;;;6.10;94632.00;;;;7395593;19;20492;-75
2022/11/10 04:15:42;;;;;;;19.73;6.13;;;;;6.00;94634.00;;;;7396700;19;20203;-76
2022/11/10 04:18:20;;;;;;;15.63;5.67;;;;;6.00;94638.00;;;;7395825;19;20173;-76
2022/11/10 04:21:02;;;;;;;17.53;5.20;;;;;5.90;94661.00;;;;7394969;19;20606;-76
2022/11/10 04:23:34;;;;;;;21.43;6.13;;;;;5.90;94654.00;;;;7392573;19;20148;-77
2022/11/10 04:26:28;;;;;;;16.33;5.50;;;;;6.00;94658.00;;;;7393873;19;20129;-76
2022/11/10 04:28:59;;;;;;;21.70;5.67;;;;;6.00;94658.00;;;;7396631;19;20152;-76
2022/11/10 04:31:36;;;;;;;16.90;6.10;;;;;6.20;94658.00;;;;7394925;19;20136;-78
2022/11/10 04:34:05;;;;;;;18.17;6.17;;;;;6.30;94681.00;;;;7398548;19;20160;-76
2022/11/10 04:36:36;;;;;;;17.23;5.63;;;;;6.40;94677.00;;;;7392522;19;20527;-76
2022/11/10 04:39:11;;;;;;;13.57;5.30;;;;;6.40;94657.00;;;;7395155;19;20753;-76
2022/11/10 04:41:39;;;;;;;15.40;5.30;;;;;6.50;94659.00;;;;7393970;19;20555;-76
2022/11/10 04:44:08;;;;;;;11.57;5.67;;;;;6.40;94685.00;;;;7399086;19;20133;-76
2022/11/10 04:46:43;;;;;;;13.87;5.50;;;;;6.40;94700.00;;;;7393182;19;20132;-75
2022/11/10 04:49:11;;;;;;;14.83;4.77;;;;;6.30;94689.00;;;;7399308;19;20129;-76
2022/11/10 04:51:39;;;;;;;20.33;5.37;;;;;6.30;94693.00;;;;7395855;19;20137;-76
2022/11/10 04:54:19;;;;;;;21.37;5.37;;;;;6.40;94693.00;;;;7394245;19;20191;-75
2022/11/10 04:56:46;;;;;;;9.80;5.13;;;;;6.40;94703.00;;;;7393614;19;20133;-75
2022/11/10 04:59:21;;;;;;;19.60;4.87;;;;;6.30;94706.00;;;;7389356;19;20690;-75
2022/11/10 05:01:49;;;;;;;8.33;3.80;;;;;6.50;94708.00;;;;7395658;19;20641;-75
2022/11/10 05:04:19;;;;;;;14.20;4.67;;;;;6.50;94700.00;;;;7393602;19;20136;-75
2022/11/10 05:06:52;;;;;;;16.80;5.43;;;;;6.40;94703.00;;;;7392874;19;20192;-75
2022/11/10 05:09:20;;;;;;;13.43;4.50;;;;;6.30;94708.00;;;;7392150;19;20125;-75
2022/11/10 05:11:54;;;;;;;15.93;4.60;;;;;6.40;94711.00;;;;7394756;19;20139;-76
2022/11/10 05:14:28;;;;;;;11.33;4.70;;;;;6.40;94713.00;;;;7392992;19;20592;-76
2022/11/10 05:16:56;;;;;;;12.33;4.37;;;;;6.20;94714.00;;;;7397238;19;20619;-76
2022/11/10 05:19:23;;;;;;;9.80;4.83;;;;;6.10;94713.00;;;;7396846;19;20160;-76
2022/11/10 05:21:57;;;;;;;13.43;3.77;;;;;6.10;94720.00;;;;7384471;19;20144;-76
2022/11/10 05:24:28;;;;;;;12.73;4.70;;;;;6.20;94719.00;;;;7395272;19;20611;-76
2022/11/10 05:26:56;;;;;;;13.27;5.50;;;;;6.30;94721.00;;;;7394572;19;20125;-76
2022/11/10 05:29:30;;;;;;;13.87;4.60;;;;;6.30;94721.00;;;;7397352;19;20137;-75
2022/11/10 05:31:57;;;;;;;9.57;3.80;;;;;6.20;94728.00;;;;7391148;19;20157;-76
2022/11/10 05:34:25;;;;;;;13.97;4.30;;;;;6.30;94723.00;;;;7394463;19;20143;-76
2022/11/10 05:37:00;;;;;;;16.60;4.10;;;;;6.40;94735.00;;;;7392790;19;20132;-76
2022/11/10 05:39:43;;;;;;;9.90;4.23;;;;;6.50;94736.00;;;;7393976;19;20129;-76
2022/11/10 05:42:18;;;;;;;11.37;3.70;;;;;6.50;94735.00;;;;7394884;19;20157;-76
2022/11/10 05:44:46;;;;;;;7.57;3.73;;;;;6.40;94732.00;;;;7395260;19;20467;-76
2022/11/10 05:47:13;;;;;;;8.57;4.27;;;;;6.50;94732.00;;;;7391630;19;20466;-76
2022/11/10 05:49:47;;;;;;;13.20;4.30;;;;;6.30;94722.00;;;;7393802;19;20136;-76
2022/11/10 05:52:15;;;;;;;7.63;4.10;;;;;6.20;94729.00;;;;7392981;19;20141;-76
2022/11/10 05:54:43;;;;;;;8.80;4.07;;;;;6.00;94738.00;;;;7388462;19;20160;-75
2022/11/10 05:57:16;;;;;;;15.83;3.87;;;;;6.00;94748.00;;;;7395027;19;20457;-76
2022/11/10 05:59:44;;;;;;;10.63;4.30;;;;;6.00;94755.00;;;;7391357;19;20524;-76
2022/11/10 06:02:12;;;;;;;15.37;4.87;;;;;5.80;94758.00;;;;7391309;19;20480;-76
2022/11/10 06:04:45;;;;;;;13.93;3.80;;;;;5.70;94753.00;;;;7394339;19;20127;-75
2022/11/10 06:07:13;;;;;;;9.87;3.50;;;;;5.60;94770.00;;;;7389743;19;20591;-75
2022/11/10 06:09:41;;;;;;;10.73;3.20;;;;;5.50;94761.00;;;;7394524;19;20132;-75
2022/11/10 06:12:15;;;;;;;15.37;4.10;;;;;5.40;94777.00;;;;7394192;19;20519;-75
2022/11/10 06:14:43;;;;;;;13.87;3.20;;;;;5.30;94785.00;;;;7391965;19;20637;-75
2022/11/10 06:17:10;;;;;;;11.83;3.47;;;;;5.30;94780.00;;;;7392005;19;20216;-76
2022/11/10 06:19:45;;;;;;;13.27;3.30;;;;;5.00;94780.00;;;;7392827;19;20152;-78
2022/11/10 06:22:12;;;;;;;16.03;4.20;;;;;5.10;94790.00;;;;7391375;19;20148;-74
2022/11/10 06:24:40;;;;;;;22.27;4.30;;;;;5.10;94787.00;;;;7389686;19;20160;-78
2022/11/10 06:27:14;;;;;;;9.63;3.27;;;;;5.00;94791.00;;;;7387397;19;20184;-77
2022/11/10 06:29:42;;;;;;;17.37;3.90;;;;;5.10;94809.00;;;;7392203;19;20582;-77
2022/11/10 06:32:10;;;;;;;7.47;3.90;;;;;5.30;94816.00;;;;7392242;19;20652;-77
2022/11/10 06:34:44;;;;;;;12.27;3.83;;;;;5.40;94823.00;;;;7389303;19;20516;-77
2022/11/10 06:37:12;;;;;;;10.00;3.70;;;;;5.30;94829.00;;;;7388701;19;20593;-75
2022/11/10 06:39:39;;;;;;;11.20;3.83;;;;;5.40;94837.00;;;;7394680;19;20196;-77
2022/11/10 06:42:13;;;;;;;13.03;3.97;;;;;5.50;94841.00;;;;7393212;19;20132;-76
2022/11/10 06:44:41;;;;;;;13.70;4.03;;;;;5.60;94846.00;;;;7389099;19;20185;-76
2022/11/10 06:47:09;;;;;;;10.87;4.03;;;;;5.70;94845.00;;;;7390316;19;20136;-78
2022/11/10 06:49:42;;;;;;;7.43;3.73;;;;;5.80;94848.00;;;;7393622;19;20156;-78
2022/11/10 06:52:10;;;;;;;13.73;4.13;;;;;5.90;94846.00;;;;7386991;19;20132;-76
2022/11/10 06:54:37;;;;;;;16.87;4.60;;;;;6.00;94860.00;;;;7390588;19;21098;-76
2022/11/10 06:57:14;;;;;;;15.53;4.77;;;;;6.30;94877.00;;;;7390240;19;20137;-77
2022/11/10 06:59:42;;;;;;;10.77;4.40;;;;;6.60;94876.00;;;;7391807;19;20153;-77
2022/11/10 07:02:13;;;;;;;11.60;4.43;;;;;6.60;94886.00;;;;7386650;19;20599;-76
2022/11/10 07:04:49;;;;;;;9.73;4.17;;;;;6.80;94867.00;;;;7386428;19;20133;-77
2022/11/10 07:07:17;;;;;;;11.80;4.20;;;;;6.80;94873.00;;;;7388384;19;20129;-76
2022/11/10 07:09:45;;;;;;;12.00;4.50;;;;;6.80;94893.00;;;;7389448;19;20136;-75
2022/11/10 07:12:19;;;;;;;13.50;4.37;;;;;6.70;94885.00;;;;7388203;19;20583;-76
2022/11/10 07:14:49;;;;;;;8.40;3.93;;;;;6.70;94888.00;;;;7390624;19;20477;-76
2022/11/10 07:17:17;;;;;;;13.57;4.07;;;;;6.60;94890.00;;;;7388547;19;20228;-76
2022/11/10 07:19:51;;;;;;;8.10;3.67;;;;;6.40;94886.00;;;;7387901;19;20151;-76
2022/11/10 07:22:19;;;;;;;16.70;3.63;;;;;6.20;94892.00;;;;7391535;19;20133;-76
2022/11/10 07:24:47;;;;;;;7.80;3.30;;;;;6.00;94903.00;;;;7390174;19;20152;-77
2022/11/10 07:27:22;;;;;;;7.80;3.17;;;;;6.00;94904.00;;;;7391549;19;20171;-77
2022/11/10 07:29:49;;;;;;;7.67;3.40;;;;;6.00;94913.00;;;;7387627;19;20153;-75
2022/11/10 07:32:17;;;;;;;6.43;3.30;;;;;6.00;94923.00;;;;7390411;19;20185;-75
2022/11/10 07:34:50;;;;;;;11.27;3.57;;;;;6.10;94917.00;;;;7390373;19;20125;-76
2022/11/10 07:37:18;;;;;;;9.27;3.80;;;;;6.30;94919.00;;;;7388747;19;20894;-76
2022/11/10 07:39:45;;;;;;;10.93;3.93;;;;;6.50;94919.00;;;;7389182;19;20176;-76
2022/11/10 07:42:19;;;;;;;8.10;3.57;;;;;6.70;94923.00;;;;7388603;19;20143;-76
2022/11/10 07:44:47;;;;;;;7.57;3.40;;;;;6.90;94928.00;;;;7387908;19;20233;-76
2022/11/10 07:47:15;;;;;;;8.03;3.50;;;;;7.10;94941.00;;;;7387290;19;20141;-76
2022/11/10 07:49:49;;;;;;;9.37;3.53;;;;;7.40;94945.00;;;;7389111;19;20155;-75
2022/11/10 07:52:17;;;;;;;6.97;3.70;;;;;7.70;94954.00;;;;7391545;19;20148;-76
2022/11/10 07:54:51;;;;;;;5.70;3.03;;;;;8.30;94953.00;;;;7385345;19;20516;-76
2022/11/10 07:57:25;;;;;;;9.03;3.60;;;;;8.20;94954.00;;;;7398215;19;20141;-78
2022/11/10 07:59:53;;;;;;;8.93;3.57;;;;;8.30;94942.00;;;;7396219;19;20163;-77
2022/11/10 08:02:24;;;;;;;12.47;3.83;;;;;8.70;94942.00;;;;7394963;19;20144;-76
2022/11/10 08:04:59;;;;;;;5.50;3.20;;;;;9.10;94956.00;;;;7396466;19;20501;-77
2022/11/10 08:07:26;;;;;;;9.50;2.80;;;;;9.60;94959.00;;;;7397497;19;20166;-77
2022/11/10 08:09:54;;;;;;;8.47;2.63;;;;;9.80;94955.00;;;;7387574;19;20674;-78
2022/11/10 08:12:28;;;;;;;6.30;2.70;;;;;9.90;94954.00;;;;7396047;19;20988;-78
2022/11/10 08:15:00;;;;;;;5.13;1.87;;;;;10.30;94957.00;;;;7396506;19;20589;-77
2022/11/10 08:17:27;;;;;;;7.55;2.50;;;;;10.60;94960.00;;;;7398867;19;20145;-77
2022/11/10 08:20:03;;;;;;;4.38;2.08;;;;;10.70;94961.00;;;;7395877;19;20615;-78
2022/11/10 08:22:31;;;;;;;5.10;1.77;;;;;11.00;94960.00;;;;7394662;19;20155;-77
2022/11/10 08:24:58;;;;;;;5.70;1.85;;;;;11.40;94962.00;;;;7396917;19;20169;-76
2022/11/10 08:27:32;;;;;;;7.40;1.73;;;;;11.40;94962.00;;;;7396080;19;20143;-78
2022/11/10 08:30:00;;;;;;;4.30;1.38;;;;;11.50;94967.00;;;;7394559;19;20144;-77
2022/11/10 08:32:28;;;;;;;5.35;1.52;;;;;11.90;94963.00;;;;7395659;19;20144;-77
2022/11/10 08:35:03;;;;;;;4.30;1.75;;;;;12.10;94965.00;;;;7395549;19;20156;-78
2022/11/10 08:37:31;;;;;;;8.50;1.75;;;;;12.40;94958.00;;;;7395873;19;20611;-78
2022/11/10 08:39:58;;;;;;;5.35;1.50;;;;;12.70;94971.00;;;;7395214;19;20448;-78
2022/11/10 08:42:32;;;;;;;4.53;1.55;;;;;13.50;94967.00;;;;7395630;19;20208;-78
2022/11/10 08:45:00;;;;;;;2.67;1.30;;;;;13.40;94968.00;;;;7394004;19;20156;-77
2022/11/10 08:47:28;;;;;;;5.55;1.45;;;;;13.70;94965.00;;;;7396274;19;20145;-77
2022/11/10 08:50:02;;;;;;;6.32;1.25;;;;;13.30;94980.00;;;;7391490;19;20141;-77
2022/11/10 08:52:30;;;;;;;1.75;1.10;;;;;13.90;94981.00;;;;7390992;19;20137;-76
2022/11/10 08:55:00;;;;;;;3.55;1.23;;;;;14.20;94983.00;;;;7389133;19;20176;-76
2022/11/10 08:57:48;;;;;;;6.50;1.27;;;;;14.10;94975.00;;;;7394566;19;20153;-76
2022/11/10 09:00:17;;;;;;;3.08;1.20;;;;;14.30;94984.00;;;;7392928;19;20496;-75
2022/11/10 09:02:51;;;;;;;3.83;1.40;;;;;14.60;94982.00;;;;7397715;19;20143;-76
2022/11/10 09:05:18;;;;;;;5.45;1.17;;;;;13.80;94991.00;;;;7392441;19;20145;-75
2022/11/10 09:07:54;;;;;;;2.78;1.13;;;;;14.40;94995.00;;;;7392859;19;20129;-77
2022/11/10 09:10:34;;;;;;;3.53;1.05;;;;;14.50;94998.00;;;;7394666;19;20149;-78
2022/11/10 09:13:03;;;;;;;7.70;1.58;;;;;14.60;94990.00;;;;7394126;19;20129;-76
2022/11/10 09:15:38;;;;;;;4.35;1.42;;;;;14.80;94995.00;;;;7392146;19;20207;-76
2022/11/10 09:18:06;;;;;;;4.53;1.40;;;;;14.90;94990.00;;;;7393724;19;20509;-75
2022/11/10 09:20:37;;;;;;;3.03;1.00;;;;;15.00;95000.00;;;;7395138;19;20160;-75
2022/11/10 09:23:16;;;;;;;3.38;1.20;;;;;14.70;95000.00;;;;7393636;19;20124;-76
2022/11/10 09:25:50;;;;;;;4.70;0.80;;;;;14.50;95006.00;;;;7394815;19;20147;-76
2022/11/10 09:28:24;;;;;;;4.47;1.05;;;;;14.80;95009.00;;;;7394949;19;20155;-76
2022/11/10 09:30:52;;;;;;;1.90;0.90;;;;;14.80;95014.00;;;;7396316;19;20163;-75
2022/11/10 09:33:20;;;;;;;4.30;1.30;;;;;15.00;95016.00;;;;7393903;19;20149;-75
2022/11/10 09:36:00;;;;;;;4.10;1.00;;;;;14.90;95023.00;;;;7391518;19;20124;-75
2022/11/10 09:38:28;;;;;;;3.03;0.93;;;;;16.00;95015.00;;;;7390679;19;20113;-78
2022/11/10 09:41:11;;;;;;;4.70;1.48;;;;;15.90;95030.00;;;;7389093;19;20132;-76
2022/11/10 09:43:58;;;;;;;2.22;0.90;;;;;15.70;95026.00;;;;7391969;19;20133;-76
2022/11/10 09:46:41;;;;;;;3.55;1.13;;;;;16.00;95046.00;;;;7394095;19;20137;-76
2022/11/10 09:49:21;;;;;;;4.22;1.27;;;;;15.50;95046.00;;;;7390312;19;20124;-75
2022/11/10 09:51:58;;;;;;;4.38;1.40;;;;;16.00;95052.00;;;;7391466;19;20167;-76
2022/11/10 09:55:36;;;;;;;2.90;1.00;;;;;16.20;95053.00;;;;7393563;19;20457;-75
2022/11/10 09:58:12;;;;;;;1.90;1.00;;;;;16.20;95054.00;;;;7381258;19;20125;-73
2022/11/10 10:00:50;;;;;;;1.58;0.68;;;;;16.50;95047.00;;;;7387124;19;20232;-74
2022/11/10 10:03:27;;;;;;;2.35;0.98;;;;;17.30;95051.00;;;;7392635;19;20140;-75
2022/11/10 10:06:09;;;;;;;3.05;1.23;;;;;17.50;95051.00;;;;7389390;19;20140;-73
2022/11/10 10:09:23;;;;;;;3.80;1.17;;;;;16.90;95059.00;;;;7390721;19;20411;-73
2022/11/10 10:12:16;;;;;;;2.53;0.90;;;;;17.90;95054.00;;;;7390322;19;20488;-74
2022/11/10 10:15:29;;;;;;;4.72;1.05;;;;;17.60;95065.00;;;;7392929;19;20583;-73
2022/11/10 10:18:06;;;;;;;4.63;1.20;;;;;18.30;95067.00;;;;7393206;19;20528;-74
2022/11/10 10:21:04;;;;;;;5.28;1.10;;;;;18.40;95063.00;;;;7383961;19;20147;-74
2022/11/10 10:23:54;;;;;;;3.25;1.15;;;;;19.00;95068.00;;;;7394324;19;20152;-74
2022/11/10 10:26:56;;;;;;;2.80;0.90;;;;;19.00;95070.00;;;;7385331;19;20159;-76
2022/11/10 10:29:38;;;;;;;3.30;1.23;;;;;18.90;95062.00;;;;7386070;19;20527;-73
2022/11/10 10:32:21;;;;;;;6.32;1.35;;;;;17.70;95069.00;;;;7390880;19;20626;-74
2022/11/10 10:34:49;;;;;;;3.97;1.10;;;;;16.70;95070.00;;;;7387991;19;20163;-74
2022/11/10 10:37:27;;;;;;;4.43;1.20;;;;;17.90;95069.00;;;;7390128;19;20157;-74
2022/11/10 10:39:55;;;;;;;3.63;1.15;;;;;18.40;95068.00;;;;7386406;19;20161;-75
2022/11/10 10:42:33;;;;;;;4.47;1.23;;;;;18.90;95063.00;;;;7391129;19;20730;-77
2022/11/10 10:45:25;;;;;;;3.17;1.27;;;;;18.50;95064.00;;;;7393115;19;20133;-74
2022/11/10 10:48:00;;;;;;;2.03;0.80;;;;;18.70;95066.00;;;;7389528;19;20149;-77
2022/11/10 10:50:36;;;;;;;2.22;0.90;;;;;18.10;95068.00;;;;7389875;19;20136;-74
2022/11/10 10:53:16;;;;;;;4.65;1.25;;;;;18.10;95064.00;;;;7392172;19;20726;-76
2022/11/10 10:56:18;;;;;;;2.22;0.93;;;;;19.60;95062.00;;;;7386389;19;20176;-76
2022/11/10 10:59:00;;;;;;;2.75;0.90;;;;;19.20;95068.00;;;;7389820;19;20600;-76
2022/11/10 11:01:38;;;;;;;2.38;0.90;;;;;19.60;95064.00;;;;7388750;19;20125;-75
2022/11/10 11:04:34;;;;;;;2.28;0.98;;;;;18.60;95070.00;;;;7384738;19;20156;-76
2022/11/10 11:07:04;;;;;;;6.68;1.15;;;;;19.40;95075.00;;;;7386964;19;20125;-74
2022/11/10 11:09:43;;;;;;;2.95;1.08;;;;;19.50;95085.00;;;;7390188;19;20784;-77
2022/11/10 11:12:19;;;;;;;3.03;0.90;;;;;20.00;95079.00;;;;7389564;19;20245;-76
2022/11/10 11:15:27;;;;;;;0.65;0.63;;;;;19.60;95071.00;;;;7390758;19;20133;-76
2022/11/10 11:18:01;;;;;;;3.67;1.15;;;;;20.20;95077.00;;;;7389227;19;20151;-76
2022/11/10 11:21:05;;;;;;;2.67;0.80;;;;;20.10;95066.00;;;;7388739;19;20129;-75
2022/11/10 11:24:21;;;;;;;4.50;0.95;;;;;20.30;95076.00;;;;7392335;19;20133;-75
2022/11/10 11:26:57;;;;;;;3.15;0.90;;;;;20.00;95071.00;;;;7385169;19;20219;-76
2022/11/10 11:29:50;;;;;;;4.57;1.20;;;;;19.10;95079.00;;;;7387340;19;20133;-77
2022/11/10 11:32:50;;;;;;;5.15;1.40;;;;;18.60;95090.00;;;;7394517;19;20149;-74
2022/11/10 11:35:32;;;;;;;2.53;0.98;;;;;17.60;95072.00;;;;7399541;19;20160;-75
2022/11/10 11:38:11;;;;;;;3.45;1.02;;;;;18.70;95077.00;;;;7395401;19;20156;-76
2022/11/10 11:40:52;;;;;;;2.47;1.00;;;;;18.20;95084.00;;;;7398526;19;20601;-75
2022/11/10 11:43:38;;;;;;;2.88;1.23;;;;;18.70;95078.00;;;;7396603;19;20654;-77
2022/11/10 11:46:34;;;;;;;7.80;1.10;;;;;19.80;95081.00;;;;7395654;19;20681;-76
2022/11/10 11:49:15;;;;;;;2.40;0.80;;;;;18.80;95091.00;;;;7394297;19;20139;-76
2022/11/10 11:51:57;;;;;;;2.83;0.90;;;;;17.60;95096.00;;;;7396389;19;20148;-75
2022/11/10 11:54:50;;;;;;;1.70;1.00;;;;;17.60;95090.00;;;;7396963;19;20172;-76
2022/11/10 11:57:26;;;;;;;4.57;1.33;;;;;18.50;95092.00;;;;7396787;19;20184;-75
2022/11/10 12:00:15;;;;;;;2.67;1.10;;;;;19.10;95108.00;;;;7390578;19;20784;-76
2022/11/10 12:02:47;;;;;;;1.85;1.10;;;;;17.70;95111.00;;;;7389976;19;20683;-74
2022/11/10 12:05:35;;;;;;;2.60;1.20;;;;;16.20;95109.00;;;;7397167;19;20192;-75
2022/11/10 12:08:34;;;;;;;3.15;1.48;;;;;15.50;95094.00;;;;7390830;19;20179;-74
2022/11/10 12:11:24;;;;;;;1.42;1.20;;;;;15.60;95115.00;;;;7392831;19;20179;-75
2022/11/10 12:14:00;;;;;;;4.22;1.70;;;;;15.40;95101.00;;;;7398672;19;20140;-76
2022/11/10 12:16:36;;;;;;;3.40;1.30;;;;;17.50;95088.00;;;;7395750;19;20152;-77
2022/11/10 12:19:32;;;;;;;2.92;1.17;;;;;19.00;95095.00;;;;7393567;19;20144;-76
2022/11/10 12:22:41;;;;;;;3.85;1.70;;;;;19.70;95082.00;;;;7393057;19;20615;-76
2022/11/10 12:25:30;;;;;;;3.47;1.17;;;;;20.10;95076.00;;;;7395930;19;20604;-76
2022/11/10 12:28:27;;;;;;;3.20;1.67;;;;;20.40;95076.00;;;;7391412;19;20599;-76
2022/11/10 12:31:01;;;;;;;2.60;1.38;;;;;19.90;95084.00;;;;7391279;19;20158;-76
2022/11/10 12:33:55;;;;;;;6.30;1.50;;;;;17.60;95108.00;;;;7396705;19;20133;-75
2022/11/10 12:36:25;;;;;;;3.50;1.48;;;;;15.60;95114.00;;;;7396707;19;20137;-75
2022/11/10 12:39:02;;;;;;;2.85;1.55;;;;;15.20;95104.00;;;;7393117;19;20567;-75
2022/11/10 12:41:40;;;;;;;4.65;1.70;;;;;15.70;95081.00;;;;7396581;19;20156;-77
2022/11/10 12:45:03;;;;;;;5.07;1.23;;;;;17.10;95075.00;;;;7393096;19;20136;-75
2022/11/10 12:47:48;;;;;;;3.55;1.52;;;;;18.90;95068.00;;;;7393376;19;20129;-75
2022/11/10 12:50:37;;;;;;;3.38;1.33;;;;;19.80;95061.00;;;;7393563;19;20661;-76
2022/11/10 12:53:17;;;;;;;3.38;1.35;;;;;20.70;95067.00;;;;7392455;19;20137;-78
2022/11/10 12:56:38;;;;;;;1.50;1.15;;;;;20.30;95082.00;;;;7394618;19;20675;-75
2022/11/10 12:59:20;;;;;;;4.95;1.40;;;;;20.90;95070.00;;;;7395742;19;20187;-76
2022/11/10 13:02:01;;;;;;;3.08;1.02;;;;;21.10;95083.00;;;;7396602;19;20132;-75
2022/11/10 13:04:31;;;;;;;2.55;1.20;;;;;21.30;95079.00;;;;7389020;19;20188;-74
2022/11/10 13:07:06;;;;;;;2.53;1.20;;;;;21.10;95092.00;;;;7392365;19;20582;-74
2022/11/10 13:09:42;;;;;;;6.07;1.38;;;;;19.10;95111.00;;;;7393380;19;20136;-75